createdAt,value
2018-11-29T00:00:39.375Z,101167.88
2018-11-29T00:03:09.641Z,101154.88
2018-11-29T00:05:37.706Z,101160.06
2018-11-29T00:08:05.479Z,101156.02
2018-11-29T00:10:33.575Z,101162.11
2018-11-29T00:13:01.215Z,101161.78
2018-11-29T00:15:28.858Z,101158.89
2018-11-29T00:17:56.555Z,101160.94
2018-11-29T00:20:24.314Z,101161.30
2018-11-29T00:22:52.015Z,101162.29
2018-11-29T00:25:20.087Z,101161.45
2018-11-29T00:27:47.987Z,101156.70
2018-11-29T00:30:20.152Z,101161.96
2018-11-29T00:32:48.523Z,101155.02
2018-11-29T00:35:17.019Z,101153.05
2018-11-29T00:37:44.777Z,101156.73
2018-11-29T00:40:22.203Z,101150.81
2018-11-29T00:42:49.964Z,101148.30
2018-11-29T00:45:20.700Z,101148.12
2018-11-29T00:47:48.911Z,101144.58
2018-11-29T00:50:17.637Z,101135.41
2018-11-29T00:52:46.680Z,101138.14
2018-11-29T00:55:17.084Z,101129.02
2018-11-29T00:57:44.839Z,101128.64
2018-11-29T01:00:17.088Z,101133.87
2018-11-29T01:02:44.855Z,101131.20
2018-11-29T01:05:12.539Z,101141.50
2018-11-29T01:07:40.303Z,101143.73
2018-11-29T01:10:14.183Z,101151.15
2018-11-29T01:12:42.254Z,101153.67
2018-11-29T01:15:13.311Z,101155.56
2018-11-29T01:17:41.078Z,101148.98
2018-11-29T01:20:12.268Z,101142.23
2018-11-29T01:22:39.991Z,101150.34
2018-11-29T01:25:09.500Z,101152.68
2018-11-29T01:27:37.227Z,101149.14
2018-11-29T01:30:09.157Z,101145.92
2018-11-29T01:32:37.119Z,101126.83
2018-11-29T01:35:05.446Z,101120.43
2018-11-29T01:37:33.208Z,101125.66
2018-11-29T01:40:00.895Z,101112.31
2018-11-29T01:42:28.638Z,101112.14
2018-11-29T01:44:56.427Z,101104.72
2018-11-29T01:47:24.062Z,101106.03
2018-11-29T01:49:51.715Z,101102.34
2018-11-29T01:52:19.382Z,101110.27
2018-11-29T01:54:47.067Z,101110.45
2018-11-29T01:57:14.773Z,101119.26
2018-11-29T01:59:42.382Z,101122.08
2018-11-29T02:02:10.507Z,101137.81
2018-11-29T02:04:38.179Z,101140.99
2018-11-29T02:07:05.891Z,101136.09
2018-11-29T02:09:33.649Z,101122.95
2018-11-29T02:12:01.345Z,101120.91
2018-11-29T02:14:28.996Z,101116.66
2018-11-29T02:16:56.767Z,101118.34
2018-11-29T02:19:28.778Z,101114.98
2018-11-29T02:21:56.579Z,101112.98
2018-11-29T02:24:24.336Z,101111.77
2018-11-29T02:26:52.079Z,101114.47
2018-11-29T02:29:19.732Z,101109.58
2018-11-29T02:31:47.492Z,101104.50
2018-11-29T02:34:15.177Z,101098.40
2018-11-29T02:36:42.924Z,101089.30
2018-11-29T02:39:10.599Z,101089.11
2018-11-29T02:41:38.314Z,101098.07
2018-11-29T02:44:06.128Z,101101.94
2018-11-29T02:46:33.803Z,101101.42
2018-11-29T02:49:01.542Z,101100.59
2018-11-29T02:51:29.204Z,101099.73
2018-11-29T02:53:56.899Z,101100.03
2018-11-29T02:56:24.587Z,101087.72
2018-11-29T02:58:52.371Z,101080.81
2018-11-29T03:01:20.103Z,101084.18
2018-11-29T03:03:47.795Z,101090.93
2018-11-29T03:06:15.443Z,101091.95
2018-11-29T03:08:43.175Z,101098.25
2018-11-29T03:11:10.807Z,101091.96
2018-11-29T03:13:38.474Z,101084.02
2018-11-29T03:16:06.231Z,101082.31
2018-11-29T03:18:33.983Z,101068.27
2018-11-29T03:21:01.699Z,101055.45
2018-11-29T03:23:29.455Z,101057.31
2018-11-29T03:25:57.143Z,101054.42
2018-11-29T03:28:24.836Z,101052.25
2018-11-29T03:30:52.561Z,101048.14
2018-11-29T03:33:20.244Z,101053.22
2018-11-29T03:35:47.948Z,101032.27
2018-11-29T03:38:15.691Z,101033.77
2018-11-29T03:40:43.375Z,101031.06
2018-11-29T03:43:11.068Z,101037.83
2018-11-29T03:45:38.783Z,101018.91
2018-11-29T03:48:06.464Z,101024.50
2018-11-29T03:50:34.136Z,101016.91
2018-11-29T03:53:01.843Z,101009.81
2018-11-29T03:55:29.492Z,101000.54
2018-11-29T03:57:57.186Z,100992.25
2018-11-29T04:00:24.903Z,101004.27
2018-11-29T04:02:52.567Z,101014.34
2018-11-29T04:05:20.264Z,101012.51
2018-11-29T04:07:47.892Z,101004.33
2018-11-29T04:10:16.051Z,101007.58
2018-11-29T04:12:43.839Z,101013.88
2018-11-29T04:15:14.598Z,101011.11
2018-11-29T04:17:42.471Z,101020.90
2018-11-29T04:20:13.146Z,101022.56
2018-11-29T04:22:40.847Z,101032.73
2018-11-29T04:25:11.346Z,101023.42
2018-11-29T04:27:39.126Z,101012.46
2018-11-29T04:30:13.265Z,101014.31
2018-11-29T04:32:40.936Z,101025.45
2018-11-29T04:35:09.641Z,101026.95
2018-11-29T04:37:37.947Z,101030.35
2018-11-29T04:40:09.564Z,101028.75
2018-11-29T04:42:37.195Z,101035.38
2018-11-29T04:45:07.689Z,101034.47
2018-11-29T04:47:35.551Z,101038.84
2018-11-29T04:50:03.311Z,101033.75
2018-11-29T04:52:30.946Z,101036.48
2018-11-29T04:54:58.711Z,101026.85
2018-11-29T04:57:26.385Z,101023.77
2018-11-29T04:59:54.150Z,101011.97
2018-11-29T05:02:21.920Z,101009.75
2018-11-29T05:04:49.671Z,101004.83
2018-11-29T05:07:17.303Z,101000.01
2018-11-29T05:09:45.039Z,101004.81
2018-11-29T05:12:12.795Z,101007.73
2018-11-29T05:14:40.452Z,101009.73
2018-11-29T05:17:08.176Z,101004.81
2018-11-29T05:19:35.868Z,101004.30
2018-11-29T05:22:03.566Z,101005.34
2018-11-29T05:24:31.192Z,101008.75
2018-11-29T05:26:58.863Z,101003.86
2018-11-29T05:29:26.585Z,100990.28
2018-11-29T05:31:54.271Z,100978.63
2018-11-29T05:34:21.921Z,100979.57
2018-11-29T05:36:49.654Z,100980.41
2018-11-29T05:39:17.351Z,100974.67
2018-11-29T05:41:45.015Z,100969.39
2018-11-29T05:44:12.729Z,100962.31
2018-11-29T05:46:40.423Z,100965.18
2018-11-29T05:49:08.071Z,100963.39
2018-11-29T05:51:35.766Z,100959.92
2018-11-29T05:54:03.767Z,100958.30
2018-11-29T05:56:31.483Z,100959.49
2018-11-29T05:58:59.251Z,100957.39
2018-11-29T06:01:30.859Z,100961.69
2018-11-29T06:03:58.478Z,100974.22
2018-11-29T06:06:26.215Z,100966.75
2018-11-29T06:08:54.302Z,100969.80
2018-11-29T06:11:22.018Z,100972.48
2018-11-29T06:13:49.762Z,100973.70
2018-11-29T06:16:17.663Z,100972.58
2018-11-29T06:18:45.416Z,100968.83
2018-11-29T06:21:13.251Z,100959.05
2018-11-29T06:23:40.986Z,100955.05
2018-11-29T06:26:09.011Z,100963.44
2018-11-29T06:28:37.003Z,100966.84
2018-11-29T06:31:05.323Z,100963.81
2018-11-29T06:33:35.034Z,100966.59
2018-11-29T06:36:02.915Z,100949.66
2018-11-29T06:38:30.602Z,100951.15
2018-11-29T06:40:58.557Z,100958.94
2018-11-29T06:43:26.323Z,100965.77
2018-11-29T06:45:54.399Z,100961.06
2018-11-29T06:48:22.143Z,100957.14
2018-11-29T06:50:49.963Z,100958.56
2018-11-29T06:53:23.439Z,100961.97
2018-11-29T06:55:51.163Z,100962.57
2018-11-29T06:58:18.907Z,100957.52
2018-11-29T07:00:46.967Z,100951.11
2018-11-29T07:03:14.699Z,100955.86
2018-11-29T07:05:44.164Z,100946.26
2018-11-29T07:08:11.893Z,100939.31
2018-11-29T07:10:39.641Z,100936.32
2018-11-29T07:13:07.444Z,100935.16
2018-11-29T07:15:35.269Z,100933.72
2018-11-29T07:18:02.977Z,100928.52
2018-11-29T07:20:31.612Z,100930.24
2018-11-29T07:22:59.372Z,100931.10
2018-11-29T07:25:27.067Z,100932.97
2018-11-29T07:27:54.949Z,100940.03
2018-11-29T07:30:22.683Z,100944.23
2018-11-29T07:32:50.438Z,100938.81
2018-11-29T07:35:18.199Z,100939.86
2018-11-29T07:37:45.931Z,100931.22
2018-11-29T07:40:17.372Z,100927.87
2018-11-29T07:42:47.080Z,100924.44
2018-11-29T07:45:16.358Z,100921.16
2018-11-29T07:47:44.763Z,100923.04
2018-11-29T07:50:20.311Z,100931.45
2018-11-29T07:52:48.027Z,100927.28
2018-11-29T07:55:17.418Z,100925.53
2018-11-29T07:57:46.409Z,100932.29
2018-11-29T08:00:15.499Z,100931.24
2018-11-29T08:02:43.449Z,100935.73
2018-11-29T08:05:13.512Z,100932.63
2018-11-29T08:07:47.682Z,100927.92
2018-11-29T08:10:18.591Z,100931.71
2018-11-29T08:12:46.599Z,100927.44
2018-11-29T08:15:16.394Z,100926.73
2018-11-29T08:17:44.147Z,100943.78
2018-11-29T08:20:15.384Z,100936.52
2018-11-29T08:22:43.125Z,100940.95
2018-11-29T08:25:11.179Z,100950.00
2018-11-29T08:27:38.903Z,100936.92
2018-11-29T08:30:09.712Z,100935.44
2018-11-29T08:32:37.487Z,100930.12
2018-11-29T08:35:06.426Z,100931.89
2018-11-29T08:37:34.088Z,100926.17
2018-11-29T08:40:01.855Z,100924.42
2018-11-29T08:42:29.530Z,100919.02
2018-11-29T08:44:57.265Z,100915.17
2018-11-29T08:47:24.939Z,100905.70
2018-11-29T08:49:52.680Z,100913.34
2018-11-29T08:52:20.439Z,100909.44
2018-11-29T08:54:48.107Z,100908.25
2018-11-29T08:57:15.876Z,100907.31
2018-11-29T08:59:44.023Z,100910.95
2018-11-29T09:02:11.791Z,100905.38
2018-11-29T09:04:39.503Z,100913.75
2018-11-29T09:07:07.270Z,100913.11
2018-11-29T09:09:34.928Z,100912.91
2018-11-29T09:12:02.692Z,100904.28
2018-11-29T09:14:30.408Z,100892.41
2018-11-29T09:16:58.079Z,100893.81
2018-11-29T09:19:25.722Z,100902.11
2018-11-29T09:21:53.447Z,100913.45
2018-11-29T09:24:21.119Z,100905.73
2018-11-29T09:26:48.828Z,100908.53
2018-11-29T09:29:16.535Z,100913.23
2018-11-29T09:31:44.247Z,100907.74
2018-11-29T09:34:11.907Z,100909.53
2018-11-29T09:36:39.598Z,100914.91
2018-11-29T09:39:08.276Z,100903.62
2018-11-29T09:41:36.343Z,100896.30
2018-11-29T09:44:04.095Z,100893.81
2018-11-29T09:46:31.871Z,100890.91
2018-11-29T09:48:59.735Z,100887.27
2018-11-29T09:51:27.421Z,100890.09
2018-11-29T09:53:55.167Z,100881.44
2018-11-29T09:56:22.919Z,100890.42
2018-11-29T09:58:50.692Z,100888.67
2018-11-29T10:01:18.435Z,100883.91
2018-11-29T10:03:46.123Z,100878.91
2018-11-29T10:06:13.816Z,100880.65
2018-11-29T10:08:41.496Z,100880.95
2018-11-29T10:11:09.211Z,100877.89
2018-11-29T10:13:36.855Z,100870.49
2018-11-29T10:16:04.567Z,100867.08
2018-11-29T10:18:32.323Z,100869.20
2018-11-29T10:21:00.039Z,100857.62
2018-11-29T10:23:27.708Z,100860.95
2018-11-29T10:25:55.529Z,100848.62
2018-11-29T10:28:23.280Z,100852.27
2018-11-29T10:30:55.251Z,100851.87
2018-11-29T10:33:22.947Z,100848.92
2018-11-29T10:35:50.668Z,100839.92
2018-11-29T10:38:18.492Z,100826.50
2018-11-29T10:40:46.263Z,100832.16
2018-11-29T10:43:14.032Z,100834.27
2018-11-29T10:45:41.657Z,100839.92
2018-11-29T10:48:14.527Z,100830.19
2018-11-29T10:50:42.263Z,100824.95
2018-11-29T10:53:10.024Z,100824.42
2018-11-29T10:55:37.759Z,100825.57
2018-11-29T10:58:05.815Z,100814.69
2018-11-29T11:00:39.319Z,100817.11
2018-11-29T11:03:13.155Z,100815.53
2018-11-29T11:05:41.028Z,100819.52
2018-11-29T11:08:09.126Z,100817.94
2018-11-29T11:10:38.227Z,100813.42
2018-11-29T11:13:06.264Z,100806.62
2018-11-29T11:15:34.040Z,100809.99
2018-11-29T11:18:01.767Z,100805.69
2018-11-29T11:20:29.479Z,100803.28
2018-11-29T11:22:57.274Z,100799.42
2018-11-29T11:25:25.028Z,100798.67
2018-11-29T11:27:52.859Z,100798.49
2018-11-29T11:30:21.532Z,100802.36
2018-11-29T11:32:50.735Z,100798.59
2018-11-29T11:35:18.839Z,100800.78
2018-11-29T11:37:46.566Z,100794.06
2018-11-29T11:40:16.555Z,100797.44
2018-11-29T11:42:45.399Z,100795.02
2018-11-29T11:45:17.667Z,100789.67
2018-11-29T11:47:45.607Z,100775.36
2018-11-29T11:50:29.921Z,100771.78
2018-11-29T11:52:57.627Z,100769.48
2018-11-29T11:55:30.030Z,100775.37
2018-11-29T11:57:53.800Z,100778.27
2018-11-29T12:00:24.376Z,100764.89
2018-11-29T12:03:05.396Z,100766.46
2018-11-29T12:05:33.099Z,100765.63
2018-11-29T12:08:00.835Z,100770.64
2018-11-29T12:10:29.133Z,100759.35
2018-11-29T12:12:56.779Z,100758.30
2018-11-29T12:15:24.495Z,100752.55
2018-11-29T12:17:52.271Z,100745.75
2018-11-29T12:20:20.353Z,100742.20
2018-11-29T12:22:48.031Z,100744.58
2018-11-29T12:25:17.615Z,100732.98
2018-11-29T12:27:45.359Z,100735.40
2018-11-29T12:30:20.103Z,100724.70
2018-11-29T12:32:47.881Z,100719.07
2018-11-29T12:35:15.652Z,100708.91
2018-11-29T12:37:44.010Z,100708.19
2018-11-29T12:40:15.039Z,100712.59
2018-11-29T12:42:42.976Z,100702.53
2018-11-29T12:45:13.863Z,100704.83
2018-11-29T12:47:42.746Z,100699.81
2018-11-29T12:50:15.032Z,100694.69
2018-11-29T12:52:43.251Z,100686.08
2018-11-29T12:55:12.189Z,100683.72
2018-11-29T12:57:39.931Z,100673.14
2018-11-29T13:00:10.920Z,100667.92
2018-11-29T13:02:38.519Z,100666.44
2018-11-29T13:05:07.893Z,100665.67
2018-11-29T13:07:35.623Z,100663.19
2018-11-29T13:10:03.663Z,100654.81
2018-11-29T13:12:31.315Z,100650.85
2018-11-29T13:14:59.092Z,100650.01
2018-11-29T13:17:30.242Z,100642.27
2018-11-29T13:19:57.895Z,100632.74
2018-11-29T13:22:25.583Z,100619.98
2018-11-29T13:24:53.244Z,100632.03
2018-11-29T13:27:20.947Z,100640.48
2018-11-29T13:29:48.721Z,100639.34
2018-11-29T13:32:16.429Z,100619.02
2018-11-29T13:34:44.151Z,100612.55
2018-11-29T13:37:11.841Z,100602.95
2018-11-29T13:39:39.520Z,100603.13
2018-11-29T13:42:07.256Z,100596.34
2018-11-29T13:44:34.980Z,100592.64
2018-11-29T13:47:02.720Z,100588.55
2018-11-29T13:49:30.376Z,100588.14
2018-11-29T13:51:58.022Z,100600.14
2018-11-29T13:54:25.645Z,100606.76
2018-11-29T13:56:53.419Z,100612.06
2018-11-29T13:59:25.738Z,100610.19
2018-11-29T14:01:53.523Z,100616.81
2018-11-29T14:04:21.184Z,100617.63
2018-11-29T14:06:48.833Z,100620.00
2018-11-29T14:09:16.531Z,100621.38
2018-11-29T14:11:44.229Z,100634.47
2018-11-29T14:14:11.994Z,100625.65
2018-11-29T14:16:39.749Z,100628.50
2018-11-29T14:19:07.463Z,100642.20
2018-11-29T14:21:35.119Z,100632.58
2018-11-29T14:24:02.807Z,100623.60
2018-11-29T14:26:30.541Z,100631.02
2018-11-29T14:28:58.179Z,100615.56
2018-11-29T14:31:25.904Z,100620.90
2018-11-29T14:33:53.804Z,100606.36
2018-11-29T14:36:21.476Z,100592.98
2018-11-29T14:38:49.118Z,100560.08
2018-11-29T14:41:16.834Z,100551.93
2018-11-29T14:43:44.532Z,100522.36
2018-11-29T14:46:12.198Z,100489.91
2018-11-29T14:48:39.923Z,100439.55
2018-11-29T14:51:07.577Z,100433.81
2018-11-29T14:53:35.278Z,100495.11
2018-11-29T14:56:02.928Z,100555.69
2018-11-29T14:58:30.627Z,100513.69
2018-11-29T15:00:58.355Z,100519.50
2018-11-29T15:03:28.693Z,100556.59
2018-11-29T15:05:56.412Z,100537.20
2018-11-29T15:08:24.095Z,100543.34
2018-11-29T15:10:51.819Z,100536.31
2018-11-29T15:13:19.566Z,100532.12
2018-11-29T15:15:47.260Z,100542.58
2018-11-29T15:18:14.987Z,100540.73
2018-11-29T15:20:45.659Z,100554.09
2018-11-29T15:23:15.303Z,100556.82
2018-11-29T15:25:43.024Z,100553.05
2018-11-29T15:28:10.742Z,100572.89
2018-11-29T15:30:38.484Z,100593.77
2018-11-29T15:33:06.256Z,100591.58
2018-11-29T15:35:33.991Z,100594.30
2018-11-29T15:38:02.351Z,100582.91
2018-11-29T15:40:30.213Z,100584.05
2018-11-29T15:42:57.902Z,100576.92
2018-11-29T15:45:27.262Z,100573.01
2018-11-29T15:47:55.159Z,100562.14
2018-11-29T15:50:22.915Z,100525.97
2018-11-29T15:52:50.615Z,100475.55
2018-11-29T15:55:20.766Z,100464.06
2018-11-29T15:57:50.608Z,100454.97
2018-11-29T16:00:22.737Z,100475.33
2018-11-29T16:02:51.155Z,100465.09
2018-11-29T16:05:18.953Z,100471.37
2018-11-29T16:07:46.623Z,100471.16
2018-11-29T16:10:17.850Z,100483.15
2018-11-29T16:12:45.515Z,100488.80
2018-11-29T16:15:15.297Z,100482.84
2018-11-29T16:17:43.723Z,100476.58
2018-11-29T16:20:17.116Z,100476.67
2018-11-29T16:22:44.127Z,100466.77
2018-11-29T16:25:11.908Z,100453.72
2018-11-29T16:27:41.770Z,100456.10
2018-11-29T16:30:41.091Z,100457.98
2018-11-29T16:33:14.191Z,100462.48
2018-11-29T16:35:41.928Z,100464.89
2018-11-29T16:38:09.723Z,100462.05
2018-11-29T16:40:37.419Z,100462.39
2018-11-29T16:43:06.343Z,100455.27
2018-11-29T16:45:34.208Z,100443.89
2018-11-29T16:48:01.903Z,100440.47
2018-11-29T16:50:29.580Z,100428.88
2018-11-29T16:52:57.218Z,100424.19
2018-11-29T16:55:24.915Z,100425.84
2018-11-29T16:57:56.282Z,100431.27
2018-11-29T17:00:24.018Z,100433.24
2018-11-29T17:02:51.741Z,100425.01
2018-11-29T17:05:19.595Z,100429.69
2018-11-29T17:07:47.323Z,100434.59
2018-11-29T17:10:16.748Z,100433.03
2018-11-29T17:12:50.486Z,100434.61
2018-11-29T17:15:19.047Z,100434.61
2018-11-29T17:17:46.911Z,100437.44
2018-11-29T17:20:18.002Z,100439.72
2018-11-29T17:22:46.419Z,100445.05
2018-11-29T17:25:14.235Z,100445.35
2018-11-29T17:27:41.927Z,100441.89
2018-11-29T17:30:27.056Z,100453.39
2018-11-29T17:32:57.177Z,100451.52
2018-11-29T17:35:24.906Z,100442.55
2018-11-29T17:37:54.559Z,100441.07
2018-11-29T17:40:22.423Z,100442.95
2018-11-29T17:42:51.601Z,100440.33
2018-11-29T17:45:21.955Z,100432.09
2018-11-29T17:47:51.698Z,100440.23
2018-11-29T17:50:22.616Z,100433.45
2018-11-29T17:52:50.367Z,100437.43
2018-11-29T17:55:18.156Z,100428.86
2018-11-29T17:57:45.826Z,100440.00
2018-11-29T18:00:16.788Z,100436.45
2018-11-29T18:02:44.511Z,100442.01
2018-11-29T18:05:12.200Z,100425.20
2018-11-29T18:07:39.891Z,100416.64
2018-11-29T18:10:11.191Z,100427.06
2018-11-29T18:12:39.351Z,100427.70
2018-11-29T18:15:14.591Z,100437.70
2018-11-29T18:17:42.378Z,100447.19
2018-11-29T18:20:11.385Z,100445.22
2018-11-29T18:22:39.248Z,100446.03
2018-11-29T18:25:10.521Z,100447.56
2018-11-29T18:27:38.691Z,100444.66
2018-11-29T18:30:11.755Z,100443.09
2018-11-29T18:32:40.185Z,100446.84
2018-11-29T18:35:09.420Z,100453.63
2018-11-29T18:37:37.242Z,100456.70
2018-11-29T18:40:17.236Z,100460.06
2018-11-29T18:42:47.615Z,100460.98
2018-11-29T18:45:16.845Z,100459.20
2018-11-29T18:47:46.579Z,100463.97
2018-11-29T18:50:20.130Z,100463.80
2018-11-29T18:52:47.975Z,100455.47
2018-11-29T18:55:16.209Z,100452.88
2018-11-29T18:57:43.927Z,100445.75
2018-11-29T19:00:18.255Z,100444.81
2018-11-29T19:02:45.946Z,100439.99
2018-11-29T19:05:13.727Z,100438.98
2018-11-29T19:07:41.543Z,100442.28
2018-11-29T19:10:13.551Z,100441.80
2018-11-29T19:12:47.560Z,100441.17
2018-11-29T19:15:15.227Z,100441.14
2018-11-29T19:17:43.047Z,100445.93
2018-11-29T19:20:12.664Z,100446.87
2018-11-29T19:22:40.485Z,100446.93
2018-11-29T19:25:13.996Z,100438.12
2018-11-29T19:27:40.860Z,100442.10
2018-11-29T19:30:12.979Z,100446.69
2018-11-29T19:32:40.730Z,100452.48
2018-11-29T19:35:10.023Z,100451.53
2018-11-29T19:37:40.682Z,100460.29
2018-11-29T19:40:16.807Z,100455.28
2018-11-29T19:42:44.450Z,100464.51
2018-11-29T19:45:13.847Z,100456.14
2018-11-29T19:47:41.561Z,100462.36
2018-11-29T19:50:19.135Z,100475.27
2018-11-29T19:52:52.791Z,100466.80
2018-11-29T19:55:23.559Z,100465.14
2018-11-29T19:57:51.307Z,100463.97
2018-11-29T20:00:19.428Z,100462.05
2018-11-29T20:02:48.296Z,100465.14
2018-11-29T20:05:15.963Z,100457.53
2018-11-29T20:07:43.679Z,100467.33
2018-11-29T20:10:14.295Z,100466.80
2018-11-29T20:12:42.351Z,100461.58
2018-11-29T20:15:15.903Z,100454.91
2018-11-29T20:17:43.727Z,100452.34
2018-11-29T20:20:14.958Z,100453.35
2018-11-29T20:22:43.019Z,100454.35
2018-11-29T20:25:13.390Z,100456.43
2018-11-29T20:27:41.221Z,100454.49
2018-11-29T20:30:11.931Z,100451.64
2018-11-29T20:32:39.722Z,100454.97
2018-11-29T20:35:08.476Z,100464.55
2018-11-29T20:37:36.187Z,100458.73
2018-11-29T20:40:12.822Z,100463.35
2018-11-29T20:42:40.607Z,100466.06
2018-11-29T20:45:11.867Z,100461.48
2018-11-29T20:47:39.871Z,100461.94
2018-11-29T20:50:14.725Z,100455.64
2018-11-29T20:52:38.408Z,100455.89
2018-11-29T20:55:11.079Z,100462.78
2018-11-29T20:57:38.767Z,100458.83
2018-11-29T21:00:10.782Z,100463.27
2018-11-29T21:02:38.547Z,100458.16
2018-11-29T21:05:08.703Z,100459.62
2018-11-29T21:07:36.617Z,100460.81
2018-11-29T21:10:13.055Z,100460.76
2018-11-29T21:12:41.143Z,100462.38
2018-11-29T21:15:09.017Z,100456.13
2018-11-29T21:17:36.687Z,100460.19
2018-11-29T21:20:11.011Z,100457.17
2018-11-29T21:22:38.877Z,100447.65
2018-11-29T21:25:10.003Z,100440.88
2018-11-29T21:27:37.685Z,100449.83
2018-11-29T21:30:10.147Z,100448.05
2018-11-29T21:32:37.858Z,100451.73
2018-11-29T21:35:06.307Z,100446.11
2018-11-29T21:37:34.095Z,100451.52
2018-11-29T21:40:01.935Z,100437.00
2018-11-29T21:42:29.715Z,100439.81
2018-11-29T21:44:57.487Z,100430.68
2018-11-29T21:47:25.191Z,100424.64
2018-11-29T21:49:52.982Z,100417.62
2018-11-29T21:52:20.684Z,100416.15
2018-11-29T21:54:48.379Z,100420.57
2018-11-29T21:57:16.051Z,100411.89
2018-11-29T21:59:43.729Z,100404.23
2018-11-29T22:02:11.486Z,100406.02
2018-11-29T22:04:39.211Z,100407.58
2018-11-29T22:07:06.876Z,100411.56
2018-11-29T22:09:34.616Z,100413.93
2018-11-29T22:12:02.406Z,100411.24
2018-11-29T22:14:30.128Z,100407.38
2018-11-29T22:16:57.882Z,100403.09
2018-11-29T22:19:25.591Z,100394.58
2018-11-29T22:21:53.247Z,100401.85
2018-11-29T22:24:20.924Z,100415.36
2018-11-29T22:26:48.547Z,100411.75
2018-11-29T22:29:16.247Z,100402.87
2018-11-29T22:31:43.880Z,100400.16
2018-11-29T22:34:11.556Z,100406.36
2018-11-29T22:36:39.269Z,100392.96
2018-11-29T22:39:08.959Z,100389.05
2018-11-29T22:41:36.617Z,100400.38
2018-11-29T22:44:04.779Z,100398.88
2018-11-29T22:46:32.426Z,100388.72
2018-11-29T22:49:00.084Z,100392.14
2018-11-29T22:51:27.801Z,100388.31
2018-11-29T22:53:55.495Z,100380.99
2018-11-29T22:56:23.201Z,100387.43
2018-11-29T22:58:50.959Z,100384.41
2018-11-29T23:01:24.556Z,100382.55
2018-11-29T23:03:52.277Z,100380.16
2018-11-29T23:06:19.963Z,100386.45
2018-11-29T23:08:47.719Z,100396.50
2018-11-29T23:11:18.574Z,100395.03
2018-11-29T23:13:46.358Z,100384.27
2018-11-29T23:16:14.062Z,100392.18
2018-11-29T23:18:41.792Z,100393.80
2018-11-29T23:21:09.509Z,100395.14
2018-11-29T23:23:37.187Z,100405.70
2018-11-29T23:26:05.556Z,100402.16
2018-11-29T23:28:33.243Z,100403.77
2018-11-29T23:31:01.087Z,100398.77
2018-11-29T23:33:28.828Z,100398.77
2018-11-29T23:35:56.585Z,100406.16
2018-11-29T23:38:24.271Z,100402.94
2018-11-29T23:40:52.031Z,100398.96
2018-11-29T23:43:19.739Z,100402.87
2018-11-29T23:45:47.471Z,100406.29
2018-11-29T23:48:15.195Z,100404.17
2018-11-29T23:50:42.891Z,100401.00
2018-11-29T23:53:10.669Z,100400.24
2018-11-29T23:55:38.327Z,100407.84
2018-11-29T23:58:05.991Z,100416.37
